VAM | Vabird-VBD

Virtual Vabird! Aerolínea Virtual de habla hispana, desde 2011




 INFORMACIÓN METAR y TAF
METAR FOR PAHO
ADDS - METARS form results

(2156 UTC 09 May 2021)
Data provider http://aviationweather.gov/metar/data/
 
Forecast for: PAHO (HOMER , AK, US)
Text: PAHO 091721Z 0918/1018 VRB03KT P6SM VCSH BKN040 OVC100
Forecast period: 1800 to 2200 UTC 09 May 2021
Forecast type: FROM: standard forecast or significant change
Winds: variable direction winds at 3 MPH (3 knots; 1.5 m/s)
Visibility: 6 or more miles (10+ km)
Ceiling: 4000 feet AGL
Clouds: broken clouds at 4000 feet AGL
overcast cloud deck at 10000 feet AGL
Weather: VCSH  (showers in vicinity)
Text: FM092200 25008KT P6SM SCT025 OVC050
Forecast period: 2200 UTC 09 May 2021 to 1400 UTC 10 May 2021
Forecast type: FROM: standard forecast or significant change
Winds: from the WSW (250 degrees) at 9 MPH (8 knots; 4.1 m/s)
Visibility: 6 or more miles (10+ km)
Ceiling: 5000 feet AGL
Clouds: scattered clouds at 2500 feet AGL
overcast cloud deck at 5000 feet AGL
Weather: no significant weather forecast for this period
Text: FM101400 VRB04KT P6SM VCSH BKN035
Forecast period: 1400 to 1800 UTC 10 May 2021
Forecast type: FROM: standard forecast or significant change
Winds: variable direction winds at 5 MPH (4 knots; 2.1 m/s)
Visibility: 6 or more miles (10+ km)
Ceiling: 3500 feet AGL
Clouds: broken clouds at 3500 feet AGL
Weather: VCSH  (showers in vicinity)

 MAPA DE AEROPUERTO

 INFORMACIÓN DE PISTA